createdAt,value
2022-10-05T00:01:31.669Z,11.67
2022-10-05T00:04:15.214Z,11.71
2022-10-05T00:06:45.250Z,11.66
2022-10-05T00:09:20.700Z,11.71
2022-10-05T00:11:50.662Z,11.67
2022-10-05T00:14:24.923Z,11.66
2022-10-05T00:16:54.278Z,11.65
2022-10-05T00:19:29.985Z,11.72
2022-10-05T00:22:00.204Z,11.75
2022-10-05T00:24:27.958Z,11.63
2022-10-05T00:26:58.225Z,11.67
2022-10-05T00:29:26.674Z,11.65
2022-10-05T00:31:56.040Z,11.68
2022-10-05T00:34:23.978Z,11.64
2022-10-05T00:36:51.868Z,11.72
2022-10-05T00:39:19.966Z,11.77
2022-10-05T00:42:11.638Z,11.65
2022-10-05T00:44:46.570Z,11.74
2022-10-05T00:47:47.467Z,11.73
2022-10-05T00:50:46.162Z,11.67
2022-10-05T00:53:34.775Z,11.70
2022-10-05T00:56:11.597Z,11.72
2022-10-05T00:59:01.594Z,11.71
2022-10-05T01:01:40.888Z,11.79
2022-10-05T01:04:23.262Z,11.81
2022-10-05T01:07:10.660Z,11.88
2022-10-05T01:09:56.871Z,11.90
2022-10-05T01:12:33.156Z,11.88
2022-10-05T01:15:09.660Z,11.95
2022-10-05T01:17:49.383Z,11.92
2022-10-05T01:20:35.368Z,11.90
2022-10-05T01:23:36.519Z,11.84
2022-10-05T01:26:30.879Z,11.81
2022-10-05T01:29:11.062Z,11.81
2022-10-05T01:31:47.977Z,11.81
2022-10-05T01:34:30.451Z,11.74
2022-10-05T01:37:09.206Z,11.68
2022-10-05T01:39:51.950Z,11.66
2022-10-05T01:42:29.863Z,11.64
2022-10-05T01:45:09.514Z,11.63
2022-10-05T01:47:46.369Z,11.56
2022-10-05T01:50:31.434Z,11.51
2022-10-05T01:53:13.845Z,11.47
2022-10-05T01:55:53.448Z,11.46
2022-10-05T01:58:35.895Z,11.42
2022-10-05T02:01:17.420Z,11.39
2022-10-05T02:03:54.251Z,11.39
2022-10-05T02:06:28.622Z,11.46
2022-10-05T02:09:05.835Z,11.42
2022-10-05T02:11:35.787Z,11.45
2022-10-05T02:14:11.916Z,11.45
2022-10-05T02:16:44.872Z,11.39
2022-10-05T02:19:21.281Z,11.38
2022-10-05T02:21:55.897Z,11.37
2022-10-05T02:24:33.367Z,11.35
2022-10-05T02:27:03.500Z,11.29
2022-10-05T02:29:36.912Z,11.16
2022-10-05T02:32:15.318Z,11.14
2022-10-05T02:34:44.678Z,11.08
2022-10-05T02:37:29.993Z,11.09
2022-10-05T02:40:20.526Z,11.10
2022-10-05T02:43:01.387Z,11.07
2022-10-05T02:45:42.478Z,11.03
2022-10-05T02:48:24.641Z,10.94
2022-10-05T02:51:02.907Z,10.97
2022-10-05T02:53:41.500Z,11.01
2022-10-05T02:56:25.124Z,10.94
2022-10-05T02:59:05.381Z,11.04
2022-10-05T03:01:40.711Z,11.06
2022-10-05T03:04:25.787Z,11.08
2022-10-05T03:07:12.068Z,11.19
2022-10-05T03:09:48.920Z,11.27
2022-10-05T03:12:40.750Z,11.26
2022-10-05T03:15:29.462Z,11.27
2022-10-05T03:18:17.513Z,11.20
2022-10-05T03:20:55.870Z,11.26
2022-10-05T03:23:41.758Z,11.32
2022-10-05T03:26:32.296Z,11.26
2022-10-05T03:29:07.693Z,11.32
2022-10-05T03:31:47.933Z,11.36
2022-10-05T03:34:28.527Z,11.35
2022-10-05T03:37:08.271Z,11.33
2022-10-05T03:39:41.941Z,11.33
2022-10-05T03:42:25.476Z,11.40
2022-10-05T03:45:04.792Z,11.35
2022-10-05T03:47:47.635Z,11.34
2022-10-05T03:50:45.474Z,11.32
2022-10-05T03:53:20.590Z,11.30
2022-10-05T03:55:55.220Z,11.25
2022-10-05T03:58:32.942Z,11.23
2022-10-05T04:01:08.367Z,11.26
2022-10-05T04:03:45.581Z,11.27
2022-10-05T04:06:20.939Z,11.25
2022-10-05T04:08:57.667Z,11.32
2022-10-05T04:11:30.499Z,11.24
2022-10-05T04:14:07.701Z,11.22
2022-10-05T04:16:45.076Z,11.19
2022-10-05T04:19:22.833Z,11.22
2022-10-05T04:21:56.256Z,11.17
2022-10-05T04:24:36.531Z,11.19
2022-10-05T04:27:12.209Z,11.19
2022-10-05T04:29:47.558Z,11.15
2022-10-05T04:32:39.879Z,11.19
2022-10-05T04:35:42.292Z,11.18
2022-10-05T04:38:30.919Z,11.23
2022-10-05T04:41:25.212Z,11.15
2022-10-05T04:44:17.893Z,11.14
2022-10-05T04:47:11.626Z,11.07
2022-10-05T04:50:04.735Z,10.97
2022-10-05T04:52:48.628Z,11.01
2022-10-05T04:55:29.375Z,11.09
2022-10-05T04:58:11.663Z,11.07
2022-10-05T05:01:03.186Z,11.08
2022-10-05T05:04:00.783Z,11.21
2022-10-05T05:06:41.188Z,11.23
2022-10-05T05:09:52.881Z,11.15
2022-10-05T05:12:34.808Z,11.23
2022-10-05T05:15:29.073Z,11.15
2022-10-05T05:18:36.805Z,11.15
2022-10-05T05:21:18.225Z,11.14
2022-10-05T05:23:55.992Z,11.16
2022-10-05T05:26:38.868Z,11.15
2022-10-05T05:29:22.563Z,11.15
2022-10-05T05:32:06.319Z,11.07
2022-10-05T05:34:53.998Z,11.25
2022-10-05T05:37:34.172Z,11.23
2022-10-05T05:40:15.012Z,11.31
2022-10-05T05:42:55.330Z,11.32
2022-10-05T05:45:40.284Z,11.33
2022-10-05T05:48:19.961Z,11.41
2022-10-05T05:50:58.777Z,11.48
2022-10-05T05:53:35.711Z,11.57
2022-10-05T05:56:12.730Z,11.59
2022-10-05T05:58:53.006Z,11.60
2022-10-05T06:01:33.633Z,11.67
2022-10-05T06:04:13.663Z,11.62
2022-10-05T06:06:49.240Z,11.62
2022-10-05T06:09:25.646Z,11.74
2022-10-05T06:11:58.657Z,11.78
2022-10-05T06:31:37.082Z,12.30
2022-10-05T06:34:24.288Z,12.37
2022-10-05T06:37:00.032Z,12.50
2022-10-05T06:40:01.113Z,12.60
2022-10-05T06:42:51.080Z,12.89
2022-10-05T06:45:31.934Z,12.95
2022-10-05T06:48:17.663Z,12.90
2022-10-05T06:50:53.766Z,13.09
2022-10-05T06:53:33.540Z,13.18
2022-10-05T06:56:08.795Z,13.27
2022-10-05T06:58:55.764Z,13.19
2022-10-05T07:01:45.570Z,13.00
2022-10-05T07:04:58.229Z,13.19
2022-10-05T07:07:38.890Z,13.26
2022-10-05T07:10:26.336Z,13.23
2022-10-05T07:13:19.779Z,13.35
2022-10-05T07:16:05.606Z,13.36
2022-10-05T07:19:04.468Z,13.47
2022-10-05T07:21:49.066Z,13.51
2022-10-05T07:24:32.870Z,13.73
2022-10-05T07:27:14.318Z,13.80
2022-10-05T07:29:58.913Z,14.09
2022-10-05T07:32:37.440Z,14.38
2022-10-05T07:35:32.216Z,14.58
2022-10-05T07:38:13.623Z,14.53
2022-10-05T07:40:51.514Z,14.37
2022-10-05T07:43:51.471Z,14.19
2022-10-05T07:46:36.919Z,14.21
2022-10-05T07:49:18.705Z,14.31
2022-10-05T07:51:53.783Z,14.34
2022-10-05T07:54:32.101Z,14.42
2022-10-05T07:57:15.641Z,14.33
2022-10-05T07:59:54.941Z,14.43
2022-10-05T08:02:30.244Z,14.54
2022-10-05T08:05:05.495Z,14.59
2022-10-05T08:07:37.514Z,14.44
2022-10-05T08:10:31.750Z,14.75
2022-10-05T08:13:11.818Z,14.73
2022-10-05T08:15:43.778Z,14.75
2022-10-05T08:18:22.610Z,15.04
2022-10-05T08:20:57.501Z,14.79
2022-10-05T08:23:38.623Z,14.71
2022-10-05T08:26:26.521Z,14.73
2022-10-05T08:29:13.996Z,14.85
2022-10-05T08:31:47.302Z,14.77
2022-10-05T08:34:31.029Z,15.13
2022-10-05T08:37:05.140Z,15.13
2022-10-05T08:39:40.828Z,15.27
2022-10-05T08:43:06.866Z,15.43
2022-10-05T08:46:13.879Z,15.39
2022-10-05T08:49:17.965Z,15.60
2022-10-05T08:52:29.073Z,15.64
2022-10-05T08:55:34.828Z,15.77
2022-10-05T08:58:45.543Z,15.80
2022-10-05T09:01:24.338Z,15.68
2022-10-05T09:04:25.421Z,15.62
2022-10-05T09:07:10.725Z,15.83
2022-10-05T09:10:44.350Z,15.73
2022-10-05T09:13:40.572Z,15.74
2022-10-05T09:16:39.711Z,15.74
2022-10-05T09:20:10.434Z,15.64
2022-10-05T09:22:59.213Z,15.85
2022-10-05T09:25:44.761Z,15.98
2022-10-05T09:28:25.800Z,16.12
2022-10-05T09:31:24.145Z,16.36
2022-10-05T09:34:47.174Z,16.27
2022-10-05T09:37:38.455Z,16.45
2022-10-05T09:40:50.609Z,16.72
2022-10-05T09:43:59.069Z,16.80
2022-10-05T09:47:04.075Z,16.98
2022-10-05T09:50:29.149Z,17.09
2022-10-05T09:53:48.407Z,17.04
2022-10-05T09:56:57.110Z,17.13
2022-10-05T10:00:03.721Z,16.90
2022-10-05T10:03:18.544Z,16.58
2022-10-05T10:06:21.186Z,16.67
2022-10-05T10:09:19.316Z,16.44
2022-10-05T10:12:18.874Z,16.43
2022-10-05T10:15:35.701Z,16.48
2022-10-05T10:19:05.273Z,16.69
2022-10-05T10:22:07.514Z,16.85
2022-10-05T10:25:07.949Z,16.94
2022-10-05T10:28:19.786Z,17.08
2022-10-05T10:31:10.086Z,16.97
2022-10-05T10:34:15.013Z,16.74
2022-10-05T10:37:33.578Z,16.97
2022-10-05T10:40:26.947Z,16.91
2022-10-05T10:43:29.499Z,16.92
2022-10-05T10:46:09.889Z,16.76
2022-10-05T10:49:16.794Z,16.78
2022-10-05T10:52:11.989Z,16.95
2022-10-05T10:55:37.583Z,16.82
2022-10-05T10:58:56.982Z,16.90
2022-10-05T11:01:34.874Z,16.88
2022-10-05T11:04:47.234Z,17.10
2022-10-05T11:07:55.735Z,16.98
2022-10-05T11:10:50.987Z,17.90
2022-10-05T11:13:42.767Z,18.29
2022-10-05T11:17:05.829Z,18.69
2022-10-05T11:20:03.679Z,18.96
2022-10-05T11:23:18.196Z,19.74
2022-10-05T11:26:09.345Z,19.87
2022-10-05T11:29:08.904Z,19.97
2022-10-05T11:32:29.568Z,19.96
2022-10-05T11:35:40.844Z,19.69
2022-10-05T11:38:38.527Z,18.94
2022-10-05T11:41:56.700Z,19.08
2022-10-05T11:45:21.743Z,18.96
2022-10-05T11:48:21.300Z,19.00
2022-10-05T11:51:16.696Z,19.10
2022-10-05T11:53:58.430Z,19.27
2022-10-05T11:56:37.153Z,19.25
2022-10-05T11:59:18.781Z,19.37
2022-10-05T12:01:56.131Z,19.38
2022-10-05T12:04:43.865Z,19.12
2022-10-05T12:07:31.892Z,19.09
2022-10-05T12:10:22.793Z,19.08
2022-10-05T12:13:15.231Z,19.53
2022-10-05T12:15:51.296Z,19.65
2022-10-05T12:18:42.120Z,19.62
2022-10-05T12:21:24.717Z,19.37
2022-10-05T12:24:02.693Z,19.32
2022-10-05T12:26:37.722Z,19.36
2022-10-05T12:29:17.780Z,19.37
2022-10-05T12:31:58.916Z,19.37
2022-10-05T12:34:56.573Z,19.54
2022-10-05T12:37:52.753Z,19.44
2022-10-05T12:40:35.068Z,19.31
2022-10-05T12:43:18.021Z,19.21
2022-10-05T12:46:06.393Z,19.38
2022-10-05T12:49:03.671Z,19.41
2022-10-05T12:51:42.950Z,19.31
2022-10-05T12:54:24.710Z,19.44
2022-10-05T12:56:59.163Z,19.55
2022-10-05T12:59:43.293Z,19.61
2022-10-05T13:02:30.736Z,19.77
2022-10-05T13:05:18.566Z,19.80
2022-10-05T13:08:07.329Z,19.89
2022-10-05T13:10:42.638Z,19.84
2022-10-05T13:13:44.380Z,19.89
2022-10-05T13:16:27.595Z,19.70
2022-10-05T13:19:19.959Z,19.79
2022-10-05T13:22:27.087Z,19.85
2022-10-05T13:25:18.177Z,19.92
2022-10-05T13:27:56.858Z,19.89
2022-10-05T13:30:26.377Z,19.76
2022-10-05T13:33:03.165Z,19.88
2022-10-05T13:35:48.685Z,19.87
2022-10-05T13:38:36.376Z,19.95
2022-10-05T13:41:16.705Z,20.03
2022-10-05T13:44:00.918Z,20.03
2022-10-05T13:46:42.726Z,19.76
2022-10-05T13:49:26.333Z,19.87
2022-10-05T13:52:08.442Z,19.70
2022-10-05T13:54:48.990Z,19.76
2022-10-05T13:57:32.583Z,19.53
2022-10-05T14:00:05.774Z,19.61
2022-10-05T14:02:43.623Z,19.58
2022-10-05T14:05:20.731Z,19.61
2022-10-05T14:07:58.402Z,19.84
2022-10-05T14:10:38.210Z,19.85
2022-10-05T14:13:30.405Z,19.71
2022-10-05T14:16:05.336Z,19.54
2022-10-05T14:18:38.931Z,19.60
2022-10-05T14:21:26.378Z,19.51
2022-10-05T14:23:57.161Z,19.60
2022-10-05T14:26:36.806Z,19.49
2022-10-05T14:29:18.845Z,19.44
2022-10-05T14:31:54.681Z,19.37
2022-10-05T14:34:34.633Z,19.54
2022-10-05T14:37:19.024Z,19.36
2022-10-05T14:39:49.822Z,19.37
2022-10-05T14:42:20.826Z,19.19
2022-10-05T14:45:00.471Z,19.25
2022-10-05T14:47:34.221Z,19.25
2022-10-05T14:50:19.230Z,19.37
2022-10-05T14:53:01.566Z,19.09
2022-10-05T14:55:51.486Z,19.30
2022-10-05T14:58:56.909Z,19.33
2022-10-05T15:01:31.002Z,19.16
2022-10-05T15:04:22.687Z,19.31
2022-10-05T15:07:12.419Z,19.30
2022-10-05T15:10:04.905Z,19.30
2022-10-05T15:12:38.939Z,19.25
2022-10-05T15:15:25.421Z,19.23
2022-10-05T15:18:00.785Z,19.16
2022-10-05T15:20:43.688Z,19.22
2022-10-05T15:23:26.755Z,19.11
2022-10-05T15:26:10.590Z,19.06
2022-10-05T15:28:49.457Z,19.11
2022-10-05T15:31:34.211Z,19.04
2022-10-05T15:34:11.405Z,19.00
2022-10-05T15:36:47.863Z,18.83
2022-10-05T15:39:35.211Z,18.93
2022-10-05T15:42:10.916Z,18.85
2022-10-05T15:44:58.493Z,18.76
2022-10-05T15:47:45.583Z,18.61
2022-10-05T15:50:24.117Z,18.70
2022-10-05T15:52:59.749Z,18.69
2022-10-05T15:55:43.299Z,18.63
2022-10-05T15:58:54.015Z,18.58
2022-10-05T16:01:47.174Z,18.45
2022-10-05T16:04:24.452Z,18.48
2022-10-05T16:07:16.740Z,18.43
2022-10-05T16:09:56.174Z,18.37
2022-10-05T16:12:39.459Z,18.29
2022-10-05T16:15:26.444Z,18.35
2022-10-05T16:18:46.877Z,18.26
2022-10-05T16:21:31.248Z,18.13
2022-10-05T16:24:18.421Z,18.05
2022-10-05T16:26:59.565Z,18.01
2022-10-05T16:29:45.837Z,17.91
2022-10-05T16:32:19.986Z,17.81
2022-10-05T16:35:07.819Z,17.77
2022-10-05T16:37:47.097Z,17.66
2022-10-05T16:40:30.145Z,17.62
2022-10-05T16:43:15.770Z,17.55
2022-10-05T16:46:00.802Z,17.53
2022-10-05T16:48:41.067Z,17.45
2022-10-05T16:51:28.802Z,17.46
2022-10-05T16:54:18.386Z,17.41
2022-10-05T16:56:52.556Z,17.41
2022-10-05T16:59:51.574Z,17.33
2022-10-05T17:02:45.794Z,17.17
2022-10-05T17:05:45.051Z,17.17
2022-10-05T17:08:41.966Z,17.08
2022-10-05T17:11:27.481Z,17.05
2022-10-05T17:14:20.969Z,16.84
2022-10-05T17:17:18.098Z,16.97
2022-10-05T17:20:07.367Z,16.91
2022-10-05T17:22:50.757Z,16.88
2022-10-05T17:25:31.914Z,16.81
2022-10-05T17:28:24.368Z,16.77
2022-10-05T17:31:14.437Z,16.77
2022-10-05T17:34:28.385Z,16.61
2022-10-05T17:37:15.749Z,16.39
2022-10-05T17:39:53.639Z,16.35
2022-10-05T17:43:01.249Z,16.23
2022-10-05T17:46:07.280Z,16.22
2022-10-05T17:49:01.287Z,16.13
2022-10-05T17:52:20.429Z,16.08
2022-10-05T17:55:28.124Z,16.05
2022-10-05T17:57:59.863Z,15.96
2022-10-05T18:00:55.953Z,15.95
2022-10-05T18:03:43.258Z,15.90
2022-10-05T18:06:51.840Z,15.83
2022-10-05T18:09:36.174Z,15.86
2022-10-05T18:12:43.214Z,15.84
2022-10-05T18:15:48.374Z,15.74
2022-10-05T18:18:55.878Z,15.68
2022-10-05T18:21:37.977Z,15.62
2022-10-05T18:25:03.742Z,15.60
2022-10-05T18:28:14.799Z,15.53
2022-10-05T18:31:05.130Z,15.51
2022-10-05T18:34:06.420Z,15.45
2022-10-05T18:37:07.052Z,15.42
2022-10-05T18:40:00.322Z,15.39
2022-10-05T18:42:42.546Z,15.36
2022-10-05T18:45:25.968Z,15.08
2022-10-05T18:48:18.144Z,15.28
2022-10-05T18:50:55.347Z,15.26
2022-10-05T18:53:46.518Z,15.21
2022-10-05T18:56:25.526Z,15.17
2022-10-05T18:59:18.415Z,15.11
2022-10-05T19:02:06.253Z,15.00
2022-10-05T19:04:49.138Z,15.12
2022-10-05T19:07:33.349Z,15.06
2022-10-05T19:10:18.442Z,15.13
2022-10-05T19:13:13.005Z,15.19
2022-10-05T19:15:55.222Z,15.23
2022-10-05T19:19:00.940Z,15.22
2022-10-05T19:21:40.172Z,15.25
2022-10-05T19:24:45.692Z,15.23
2022-10-05T19:27:27.924Z,15.39
2022-10-05T19:30:15.098Z,15.28
2022-10-05T19:33:04.931Z,15.29
2022-10-05T19:35:46.642Z,15.23
2022-10-05T19:38:31.107Z,15.17
2022-10-05T19:41:14.968Z,15.13
2022-10-05T19:44:11.983Z,15.08
2022-10-05T19:46:59.689Z,15.15
2022-10-05T19:49:43.503Z,15.19
2022-10-05T19:52:25.801Z,15.29
2022-10-05T19:55:06.735Z,15.27
2022-10-05T19:57:34.953Z,15.30
2022-10-05T20:00:03.736Z,15.35
2022-10-05T20:02:32.559Z,15.29
2022-10-05T20:05:08.562Z,15.32
2022-10-05T20:07:38.907Z,15.21
2022-10-05T20:10:29.185Z,15.36
2022-10-05T20:12:59.521Z,15.43
2022-10-05T20:15:47.139Z,15.44
2022-10-05T20:18:57.042Z,15.53
2022-10-05T20:21:43.904Z,15.39
2022-10-05T20:24:16.909Z,15.49
2022-10-05T20:27:16.062Z,15.51
2022-10-05T20:29:46.870Z,15.51
2022-10-05T20:32:17.788Z,15.51
2022-10-05T20:34:49.384Z,15.44
2022-10-05T20:37:20.025Z,15.47
2022-10-05T20:39:51.174Z,15.51
2022-10-05T20:42:20.629Z,15.55
2022-10-05T20:44:52.947Z,15.60
2022-10-05T20:47:24.045Z,15.68
2022-10-05T20:49:53.420Z,15.60
2022-10-05T20:52:23.105Z,15.61
2022-10-05T20:54:58.760Z,15.68
2022-10-05T20:57:26.957Z,15.68
2022-10-05T20:59:54.797Z,15.81
2022-10-05T21:02:22.593Z,15.85
2022-10-05T21:04:50.753Z,15.87
2022-10-05T21:07:21.091Z,15.90
2022-10-05T21:09:49.065Z,15.88
2022-10-05T21:12:18.294Z,15.91
2022-10-05T21:14:46.942Z,16.05
2022-10-05T21:17:14.764Z,15.93
2022-10-05T21:19:42.585Z,15.97
2022-10-05T21:22:11.364Z,16.00
2022-10-05T21:24:41.818Z,16.08
2022-10-05T21:27:10.631Z,16.12
2022-10-05T21:29:41.237Z,16.10
2022-10-05T21:32:11.469Z,16.13
2022-10-05T21:34:40.156Z,16.13
2022-10-05T21:37:08.694Z,16.16
2022-10-05T21:39:36.787Z,16.17
2022-10-05T21:42:05.308Z,16.12
2022-10-05T21:44:33.211Z,16.14
2022-10-05T21:47:04.249Z,16.20
2022-10-05T21:49:32.421Z,16.03
2022-10-05T21:52:02.498Z,16.14
2022-10-05T21:54:30.644Z,16.21
2022-10-05T21:57:00.096Z,16.14
2022-10-05T21:59:35.176Z,16.07
2022-10-05T22:02:04.377Z,16.06
2022-10-05T22:04:32.211Z,16.08
2022-10-05T22:07:00.491Z,16.14
2022-10-05T22:09:28.281Z,16.09
2022-10-05T22:11:57.379Z,16.01
2022-10-05T22:14:25.376Z,16.01
2022-10-05T22:16:54.017Z,15.98
2022-10-05T22:19:23.229Z,15.97
2022-10-05T22:21:51.005Z,15.99
2022-10-05T22:24:18.912Z,15.96
2022-10-05T22:26:51.515Z,16.00
2022-10-05T22:29:21.336Z,15.93
2022-10-05T22:31:49.379Z,15.88
2022-10-05T22:34:18.575Z,15.94
2022-10-05T22:36:48.882Z,15.86
2022-10-05T22:39:17.883Z,16.00
2022-10-05T22:41:45.915Z,15.89
2022-10-05T22:44:13.676Z,15.83
2022-10-05T22:46:41.559Z,15.96
2022-10-05T22:49:09.458Z,15.97
2022-10-05T22:51:37.307Z,15.97
2022-10-05T22:54:07.085Z,15.98
2022-10-05T22:56:35.208Z,15.91
2022-10-05T22:59:03.079Z,15.92
2022-10-05T23:01:30.876Z,15.97
2022-10-05T23:03:58.806Z,15.86
2022-10-05T23:06:27.389Z,15.71
2022-10-05T23:08:55.827Z,15.95
2022-10-05T23:11:28.121Z,15.97
2022-10-05T23:13:58.639Z,15.92
2022-10-05T23:16:28.995Z,15.87
2022-10-05T23:18:57.613Z,15.83
2022-10-05T23:21:29.223Z,15.95
2022-10-05T23:23:57.311Z,16.01
2022-10-05T23:26:26.826Z,16.14
2022-10-05T23:28:55.226Z,16.28
2022-10-05T23:31:27.228Z,16.34
2022-10-05T23:33:55.800Z,16.31
2022-10-05T23:36:26.813Z,16.33
2022-10-05T23:38:54.990Z,16.33
2022-10-05T23:41:23.582Z,16.40
2022-10-05T23:43:54.705Z,16.43
2022-10-05T23:46:23.358Z,16.41
2022-10-05T23:48:51.428Z,16.32
2022-10-05T23:51:19.387Z,16.37
2022-10-05T23:53:47.238Z,16.37
2022-10-05T23:56:15.170Z,16.36
2022-10-05T23:58:42.997Z,16.39
